Strona główna
METAR-TAF:

METAR-TAF

Lotnisko :

Tak, Tajlandia

Szerokość geograficzna: 16-53N, Długość geograficzna: 099-09E, wysokość: 121 m

METAR: brakujący

czas: 23:05 (16:05 UTC)

Prognoza

Raport powstał 5 godziny i 5 minut temu, godzina 11:00 UTC
Prognoza ważna od 26 godzina 12 UTC do 27 godzina 12 UTC
Wiatr 5 kt od południowy zachód
Widzialność: 8000 m

TAF: VTPT 261100Z 2612/2712 22005KT 8000 NSC

Obserwacja i prognoza pogody dla ponad 4000 lotnisk (raport METAR i TAF).

Dostępne stacje oznaczono żółtymi i czerwonymi punktami na mapie.

Najedź kursorem aby zobaczyć nazwę stacji.

Kliknij aby zobaczyć obserwacje i prognozy pogody.

Aby zmienić mapę: kliknij na zielony przycisk z czarnym krzyżykiem, aby powiększyć; na zielony przycisk z myślnikiem, aby pomniejszyć; na zielone strzałki, aby przejść do map sąsiednich.


METAR-TAF: